sensor_id;sensor_type;location;lat;lon;timestamp;P1;durP1;ratioP1;P2;durP2;ratioP2
7501;SDS011;3792;47.740;7.606;2023-07-02T00:02:16;4.80;;;2.37;;
7501;SDS011;3792;47.740;7.606;2023-07-02T00:04:44;2.43;;;2.23;;
7501;SDS011;3792;47.740;7.606;2023-07-02T00:07:11;2.33;;;2.13;;
7501;SDS011;3792;47.740;7.606;2023-07-02T00:09:41;2.53;;;2.37;;
7501;SDS011;3792;47.740;7.606;2023-07-02T00:12:08;2.73;;;2.40;;
7501;SDS011;3792;47.740;7.606;2023-07-02T00:14:35;5.10;;;2.87;;
7501;SDS011;3792;47.740;7.606;2023-07-02T00:17:02;2.97;;;2.63;;
7501;SDS011;3792;47.740;7.606;2023-07-02T00:19:30;2.80;;;2.60;;
7501;SDS011;3792;47.740;7.606;2023-07-02T00:21:57;4.20;;;2.60;;
7501;SDS011;3792;47.740;7.606;2023-07-02T00:24:25;3.53;;;2.50;;
7501;SDS011;3792;47.740;7.606;2023-07-02T00:26:53;3.27;;;2.47;;
7501;SDS011;3792;47.740;7.606;2023-07-02T00:29:20;3.10;;;2.80;;
7501;SDS011;3792;47.740;7.606;2023-07-02T00:31:47;3.30;;;3.00;;
7501;SDS011;3792;47.740;7.606;2023-07-02T00:34:14;3.10;;;2.80;;
7501;SDS011;3792;47.740;7.606;2023-07-02T00:36:41;3.10;;;2.80;;
7501;SDS011;3792;47.740;7.606;2023-07-02T00:39:08;4.73;;;2.90;;
7501;SDS011;3792;47.740;7.606;2023-07-02T00:41:37;3.53;;;3.23;;
7501;SDS011;3792;47.740;7.606;2023-07-02T00:44:05;3.33;;;3.03;;
7501;SDS011;3792;47.740;7.606;2023-07-02T00:46:34;5.27;;;2.77;;
7501;SDS011;3792;47.740;7.606;2023-07-02T00:49:01;3.50;;;3.20;;
7501;SDS011;3792;47.740;7.606;2023-07-02T00:51:30;3.80;;;3.50;;
7501;SDS011;3792;47.740;7.606;2023-07-02T00:53:57;5.40;;;3.70;;
7501;SDS011;3792;47.740;7.606;2023-07-02T00:56:25;3.97;;;3.20;;
7501;SDS011;3792;47.740;7.606;2023-07-02T00:58:54;5.13;;;3.33;;
7501;SDS011;3792;47.740;7.606;2023-07-02T01:01:25;4.33;;;3.47;;
7501;SDS011;3792;47.740;7.606;2023-07-02T01:03:56;5.20;;;3.07;;
7501;SDS011;3792;47.740;7.606;2023-07-02T01:06:24;3.50;;;3.20;;
7501;SDS011;3792;47.740;7.606;2023-07-02T01:08:53;5.20;;;3.40;;
7501;SDS011;3792;47.740;7.606;2023-07-02T01:11:22;4.20;;;3.40;;
7501;SDS011;3792;47.740;7.606;2023-07-02T01:13:53;4.97;;;3.60;;
7501;SDS011;3792;47.740;7.606;2023-07-02T01:16:22;3.83;;;3.37;;
7501;SDS011;3792;47.740;7.606;2023-07-02T01:18:51;3.70;;;3.07;;
7501;SDS011;3792;47.740;7.606;2023-07-02T01:21:21;3.80;;;3.50;;
7501;SDS011;3792;47.740;7.606;2023-07-02T01:23:50;3.63;;;3.33;;
7501;SDS011;3792;47.740;7.606;2023-07-02T01:26:17;4.53;;;3.50;;
7501;SDS011;3792;47.740;7.606;2023-07-02T01:28:45;7.63;;;3.50;;
7501;SDS011;3792;47.740;7.606;2023-07-02T01:31:12;3.90;;;3.50;;
7501;SDS011;3792;47.740;7.606;2023-07-02T01:33:40;4.23;;;3.20;;
7501;SDS011;3792;47.740;7.606;2023-07-02T01:36:07;3.93;;;3.63;;
7501;SDS011;3792;47.740;7.606;2023-07-02T01:38:35;4.27;;;3.87;;
7501;SDS011;3792;47.740;7.606;2023-07-02T01:41:02;4.13;;;3.03;;
7501;SDS011;3792;47.740;7.606;2023-07-02T01:43:29;8.33;;;3.60;;
7501;SDS011;3792;47.740;7.606;2023-07-02T01:45:56;4.83;;;3.63;;
7501;SDS011;3792;47.740;7.606;2023-07-02T01:48:24;7.20;;;4.37;;
7501;SDS011;3792;47.740;7.606;2023-07-02T01:50:52;5.63;;;4.00;;
7501;SDS011;3792;47.740;7.606;2023-07-02T01:53:19;4.63;;;3.43;;
7501;SDS011;3792;47.740;7.606;2023-07-02T01:55:47;7.60;;;3.47;;
7501;SDS011;3792;47.740;7.606;2023-07-02T01:58:15;5.83;;;4.40;;
7501;SDS011;3792;47.740;7.606;2023-07-02T02:00:42;5.93;;;4.00;;
7501;SDS011;3792;47.740;7.606;2023-07-02T02:03:09;3.90;;;3.50;;
7501;SDS011;3792;47.740;7.606;2023-07-02T02:05:36;4.27;;;3.40;;
7501;SDS011;3792;47.740;7.606;2023-07-02T02:08:04;7.53;;;3.83;;
7501;SDS011;3792;47.740;7.606;2023-07-02T02:10:31;5.67;;;3.97;;
7501;SDS011;3792;47.740;7.606;2023-07-02T02:12:59;4.43;;;3.60;;
7501;SDS011;3792;47.740;7.606;2023-07-02T02:15:26;5.33;;;3.97;;
7501;SDS011;3792;47.740;7.606;2023-07-02T02:17:53;8.23;;;4.47;;
7501;SDS011;3792;47.740;7.606;2023-07-02T02:20:20;5.20;;;3.83;;
7501;SDS011;3792;47.740;7.606;2023-07-02T02:22:47;4.70;;;3.90;;
7501;SDS011;3792;47.740;7.606;2023-07-02T02:25:14;4.87;;;4.00;;
7501;SDS011;3792;47.740;7.606;2023-07-02T02:27:41;7.97;;;3.90;;
7501;SDS011;3792;47.740;7.606;2023-07-02T02:30:11;7.63;;;3.90;;
7501;SDS011;3792;47.740;7.606;2023-07-02T02:32:38;4.00;;;3.57;;
7501;SDS011;3792;47.740;7.606;2023-07-02T02:35:05;5.10;;;4.07;;
7501;SDS011;3792;47.740;7.606;2023-07-02T02:37:34;7.10;;;4.13;;
7501;SDS011;3792;47.740;7.606;2023-07-02T02:40:01;7.73;;;4.20;;
7501;SDS011;3792;47.740;7.606;2023-07-02T02:42:30;5.63;;;3.90;;
7501;SDS011;3792;47.740;7.606;2023-07-02T02:44:57;4.87;;;3.67;;
7501;SDS011;3792;47.740;7.606;2023-07-02T02:47:26;9.93;;;3.90;;
7501;SDS011;3792;47.740;7.606;2023-07-02T02:49:53;7.63;;;4.53;;
7501;SDS011;3792;47.740;7.606;2023-07-02T02:52:20;5.67;;;4.07;;
7501;SDS011;3792;47.740;7.606;2023-07-02T02:54:47;8.33;;;3.87;;
7501;SDS011;3792;47.740;7.606;2023-07-02T02:57:14;9.63;;;4.50;;
7501;SDS011;3792;47.740;7.606;2023-07-02T02:59:41;5.27;;;4.13;;
7501;SDS011;3792;47.740;7.606;2023-07-02T03:02:08;5.73;;;4.13;;
7501;SDS011;3792;47.740;7.606;2023-07-02T03:04:36;7.87;;;4.03;;
7501;SDS011;3792;47.740;7.606;2023-07-02T03:07:05;6.83;;;4.30;;
7501;SDS011;3792;47.740;7.606;2023-07-02T03:09:32;5.30;;;4.33;;
7501;SDS011;3792;47.740;7.606;2023-07-02T03:11:59;5.10;;;4.60;;
7501;SDS011;3792;47.740;7.606;2023-07-02T03:14:26;5.43;;;4.37;;
7501;SDS011;3792;47.740;7.606;2023-07-02T03:16:53;6.93;;;4.63;;
7501;SDS011;3792;47.740;7.606;2023-07-02T03:19:20;7.57;;;4.63;;
7501;SDS011;3792;47.740;7.606;2023-07-02T03:21:49;6.63;;;4.57;;
7501;SDS011;3792;47.740;7.606;2023-07-02T03:24:16;5.60;;;5.00;;
7501;SDS011;3792;47.740;7.606;2023-07-02T03:26:44;8.13;;;6.13;;
7501;SDS011;3792;47.740;7.606;2023-07-02T03:29:11;8.50;;;5.30;;
7501;SDS011;3792;47.740;7.606;2023-07-02T03:31:38;9.13;;;5.90;;
7501;SDS011;3792;47.740;7.606;2023-07-02T03:34:06;9.17;;;5.73;;
7501;SDS011;3792;47.740;7.606;2023-07-02T03:36:34;12.20;;;6.07;;
7501;SDS011;3792;47.740;7.606;2023-07-02T03:39:02;10.13;;;5.83;;
7501;SDS011;3792;47.740;7.606;2023-07-02T03:41:29;8.60;;;6.27;;
7501;SDS011;3792;47.740;7.606;2023-07-02T03:43:57;9.67;;;6.63;;
7501;SDS011;3792;47.740;7.606;2023-07-02T03:46:24;9.33;;;7.13;;
7501;SDS011;3792;47.740;7.606;2023-07-02T03:48:51;12.20;;;7.97;;
7501;SDS011;3792;47.740;7.606;2023-07-02T03:51:18;16.23;;;8.93;;
7501;SDS011;3792;47.740;7.606;2023-07-02T03:53:45;10.33;;;7.07;;
7501;SDS011;3792;47.740;7.606;2023-07-02T03:56:13;9.67;;;7.23;;
7501;SDS011;3792;47.740;7.606;2023-07-02T03:58:40;9.57;;;7.27;;
7501;SDS011;3792;47.740;7.606;2023-07-02T04:01:08;11.53;;;8.47;;
7501;SDS011;3792;47.740;7.606;2023-07-02T04:03:35;16.77;;;9.40;;
7501;SDS011;3792;47.740;7.606;2023-07-02T04:06:02;12.50;;;8.10;;
7501;SDS011;3792;47.740;7.606;2023-07-02T04:08:30;16.73;;;10.03;;
7501;SDS011;3792;47.740;7.606;2023-07-02T04:10:58;15.73;;;8.73;;
7501;SDS011;3792;47.740;7.606;2023-07-02T04:13:26;19.67;;;11.10;;
7501;SDS011;3792;47.740;7.606;2023-07-02T04:15:53;15.80;;;9.13;;
7501;SDS011;3792;47.740;7.606;2023-07-02T04:18:20;14.70;;;9.77;;
7501;SDS011;3792;47.740;7.606;2023-07-02T04:20:47;18.03;;;11.60;;
7501;SDS011;3792;47.740;7.606;2023-07-02T04:23:14;17.87;;;10.30;;
7501;SDS011;3792;47.740;7.606;2023-07-02T04:25:41;17.10;;;11.63;;
7501;SDS011;3792;47.740;7.606;2023-07-02T04:28:09;13.73;;;10.50;;
7501;SDS011;3792;47.740;7.606;2023-07-02T04:30:37;15.07;;;10.80;;
7501;SDS011;3792;47.740;7.606;2023-07-02T04:33:04;19.93;;;11.43;;
7501;SDS011;3792;47.740;7.606;2023-07-02T04:35:31;16.40;;;11.80;;
7501;SDS011;3792;47.740;7.606;2023-07-02T04:37:59;18.80;;;11.53;;
7501;SDS011;3792;47.740;7.606;2023-07-02T04:40:26;18.97;;;12.27;;
7501;SDS011;3792;47.740;7.606;2023-07-02T04:42:53;19.57;;;14.07;;
7501;SDS011;3792;47.740;7.606;2023-07-02T04:45:23;24.87;;;15.13;;
7501;SDS011;3792;47.740;7.606;2023-07-02T04:47:53;20.77;;;13.47;;
7501;SDS011;3792;47.740;7.606;2023-07-02T04:50:20;25.77;;;12.77;;
7501;SDS011;3792;47.740;7.606;2023-07-02T04:52:47;18.30;;;13.37;;
7501;SDS011;3792;47.740;7.606;2023-07-02T04:55:14;21.10;;;14.20;;
7501;SDS011;3792;47.740;7.606;2023-07-02T04:57:41;20.87;;;13.07;;
7501;SDS011;3792;47.740;7.606;2023-07-02T05:00:10;22.07;;;13.30;;
7501;SDS011;3792;47.740;7.606;2023-07-02T05:02:38;20.67;;;13.63;;
7501;SDS011;3792;47.740;7.606;2023-07-02T05:05:07;19.83;;;13.43;;
7501;SDS011;3792;47.740;7.606;2023-07-02T05:07:34;19.80;;;13.60;;
7501;SDS011;3792;47.740;7.606;2023-07-02T05:10:02;20.07;;;14.50;;
7501;SDS011;3792;47.740;7.606;2023-07-02T05:12:29;20.13;;;14.27;;
7501;SDS011;3792;47.740;7.606;2023-07-02T05:14:56;21.47;;;13.93;;
7501;SDS011;3792;47.740;7.606;2023-07-02T05:17:23;21.40;;;13.77;;
7501;SDS011;3792;47.740;7.606;2023-07-02T05:19:50;18.03;;;13.67;;
7501;SDS011;3792;47.740;7.606;2023-07-02T05:22:19;24.13;;;15.10;;
7501;SDS011;3792;47.740;7.606;2023-07-02T05:24:46;20.77;;;14.87;;
7501;SDS011;3792;47.740;7.606;2023-07-02T05:27:13;21.57;;;14.87;;
7501;SDS011;3792;47.740;7.606;2023-07-02T05:29:40;27.07;;;16.10;;
7501;SDS011;3792;47.740;7.606;2023-07-02T05:32:07;30.27;;;16.83;;
7501;SDS011;3792;47.740;7.606;2023-07-02T05:34:34;21.93;;;14.50;;
7501;SDS011;3792;47.740;7.606;2023-07-02T05:37:01;19.93;;;14.17;;
7501;SDS011;3792;47.740;7.606;2023-07-02T05:39:30;22.97;;;15.17;;
7501;SDS011;3792;47.740;7.606;2023-07-02T05:41:57;25.27;;;15.47;;
7501;SDS011;3792;47.740;7.606;2023-07-02T05:44:24;24.97;;;15.67;;
7501;SDS011;3792;47.740;7.606;2023-07-02T05:46:51;24.67;;;16.63;;
7501;SDS011;3792;47.740;7.606;2023-07-02T05:49:18;27.57;;;16.17;;
7501;SDS011;3792;47.740;7.606;2023-07-02T05:51:45;28.90;;;16.70;;
7501;SDS011;3792;47.740;7.606;2023-07-02T05:54:12;27.20;;;15.87;;
7501;SDS011;3792;47.740;7.606;2023-07-02T05:56:40;21.53;;;16.03;;
7501;SDS011;3792;47.740;7.606;2023-07-02T05:59:07;29.40;;;16.53;;
7501;SDS011;3792;47.740;7.606;2023-07-02T06:01:34;26.57;;;16.67;;
7501;SDS011;3792;47.740;7.606;2023-07-02T06:04:02;23.87;;;16.63;;
7501;SDS011;3792;47.740;7.606;2023-07-02T06:06:30;26.73;;;16.03;;
7501;SDS011;3792;47.740;7.606;2023-07-02T06:08:57;27.00;;;16.83;;
7501;SDS011;3792;47.740;7.606;2023-07-02T06:11:24;23.20;;;15.33;;
7501;SDS011;3792;47.740;7.606;2023-07-02T06:13:52;25.83;;;16.57;;
7501;SDS011;3792;47.740;7.606;2023-07-02T06:16:20;26.17;;;17.20;;
7501;SDS011;3792;47.740;7.606;2023-07-02T06:18:47;25.23;;;16.50;;
7501;SDS011;3792;47.740;7.606;2023-07-02T06:21:14;26.40;;;17.13;;
7501;SDS011;3792;47.740;7.606;2023-07-02T06:23:41;25.13;;;16.50;;
7501;SDS011;3792;47.740;7.606;2023-07-02T06:26:09;28.07;;;18.03;;
7501;SDS011;3792;47.740;7.606;2023-07-02T06:28:37;25.63;;;18.00;;
7501;SDS011;3792;47.740;7.606;2023-07-02T06:31:06;27.00;;;18.13;;
7501;SDS011;3792;47.740;7.606;2023-07-02T06:33:33;32.10;;;19.40;;
7501;SDS011;3792;47.740;7.606;2023-07-02T06:36:04;29.80;;;18.57;;
7501;SDS011;3792;47.740;7.606;2023-07-02T06:38:31;29.87;;;18.87;;
7501;SDS011;3792;47.740;7.606;2023-07-02T06:40:58;31.40;;;19.17;;
7501;SDS011;3792;47.740;7.606;2023-07-02T06:43:25;27.53;;;18.20;;
7501;SDS011;3792;47.740;7.606;2023-07-02T06:45:52;33.33;;;19.57;;
7501;SDS011;3792;47.740;7.606;2023-07-02T06:48:20;30.63;;;18.97;;
7501;SDS011;3792;47.740;7.606;2023-07-02T06:50:48;30.87;;;19.60;;
7501;SDS011;3792;47.740;7.606;2023-07-02T06:53:15;31.03;;;19.53;;
7501;SDS011;3792;47.740;7.606;2023-07-02T06:55:42;29.40;;;20.03;;
7501;SDS011;3792;47.740;7.606;2023-07-02T06:58:09;31.43;;;20.30;;
7501;SDS011;3792;47.740;7.606;2023-07-02T07:00:36;27.87;;;18.33;;
7501;SDS011;3792;47.740;7.606;2023-07-02T07:03:03;32.93;;;19.97;;
7501;SDS011;3792;47.740;7.606;2023-07-02T07:05:32;29.37;;;18.23;;
7501;SDS011;3792;47.740;7.606;2023-07-02T07:07:59;28.03;;;19.27;;
7501;SDS011;3792;47.740;7.606;2023-07-02T07:10:26;29.17;;;19.80;;
7501;SDS011;3792;47.740;7.606;2023-07-02T07:12:59;29.90;;;20.27;;
7501;SDS011;3792;47.740;7.606;2023-07-02T07:15:26;28.10;;;19.40;;
7501;SDS011;3792;47.740;7.606;2023-07-02T07:17:53;27.77;;;18.77;;
7501;SDS011;3792;47.740;7.606;2023-07-02T07:20:21;29.97;;;19.27;;
7501;SDS011;3792;47.740;7.606;2023-07-02T07:22:49;36.03;;;20.17;;
7501;SDS011;3792;47.740;7.606;2023-07-02T07:25:16;33.73;;;19.53;;
7501;SDS011;3792;47.740;7.606;2023-07-02T07:27:43;29.63;;;20.27;;
7501;SDS011;3792;47.740;7.606;2023-07-02T07:30:11;31.27;;;19.53;;
7501;SDS011;3792;47.740;7.606;2023-07-02T07:32:39;35.27;;;20.80;;
7501;SDS011;3792;47.740;7.606;2023-07-02T07:35:07;34.87;;;20.67;;
7501;SDS011;3792;47.740;7.606;2023-07-02T07:37:34;31.17;;;20.10;;
7501;SDS011;3792;47.740;7.606;2023-07-02T07:40:03;33.73;;;21.07;;
7501;SDS011;3792;47.740;7.606;2023-07-02T07:42:31;37.30;;;21.23;;
7501;SDS011;3792;47.740;7.606;2023-07-02T07:44:58;33.13;;;21.07;;
7501;SDS011;3792;47.740;7.606;2023-07-02T07:47:25;35.60;;;20.77;;
7501;SDS011;3792;47.740;7.606;2023-07-02T07:49:52;36.77;;;21.87;;
7501;SDS011;3792;47.740;7.606;2023-07-02T07:52:19;31.40;;;20.20;;
7501;SDS011;3792;47.740;7.606;2023-07-02T07:54:47;36.63;;;21.67;;
7501;SDS011;3792;47.740;7.606;2023-07-02T07:57:15;33.83;;;21.07;;
7501;SDS011;3792;47.740;7.606;2023-07-02T07:59:42;34.20;;;21.30;;
7501;SDS011;3792;47.740;7.606;2023-07-02T08:02:09;32.17;;;21.10;;
7501;SDS011;3792;47.740;7.606;2023-07-02T08:04:36;32.33;;;20.77;;
7501;SDS011;3792;47.740;7.606;2023-07-02T08:07:03;31.17;;;20.43;;
7501;SDS011;3792;47.740;7.606;2023-07-02T08:09:33;33.77;;;22.27;;
7501;SDS011;3792;47.740;7.606;2023-07-02T08:12:00;36.03;;;21.67;;
7501;SDS011;3792;47.740;7.606;2023-07-02T08:14:29;32.47;;;21.57;;
7501;SDS011;3792;47.740;7.606;2023-07-02T08:16:56;36.43;;;20.73;;
7501;SDS011;3792;47.740;7.606;2023-07-02T08:19:23;32.60;;;22.70;;
7501;SDS011;3792;47.740;7.606;2023-07-02T08:21:50;36.57;;;21.77;;
7501;SDS011;3792;47.740;7.606;2023-07-02T08:24:17;31.93;;;21.47;;
7501;SDS011;3792;47.740;7.606;2023-07-02T08:26:44;38.20;;;23.20;;
7501;SDS011;3792;47.740;7.606;2023-07-02T08:29:13;31.80;;;22.03;;
7501;SDS011;3792;47.740;7.606;2023-07-02T08:31:41;37.07;;;23.37;;
7501;SDS011;3792;47.740;7.606;2023-07-02T08:34:08;32.67;;;22.70;;
7501;SDS011;3792;47.740;7.606;2023-07-02T08:36:35;37.73;;;22.27;;
7501;SDS011;3792;47.740;7.606;2023-07-02T08:39:03;37.77;;;22.87;;
7501;SDS011;3792;47.740;7.606;2023-07-02T08:41:30;35.50;;;22.63;;
7501;SDS011;3792;47.740;7.606;2023-07-02T08:44:07;37.50;;;22.37;;
7501;SDS011;3792;47.740;7.606;2023-07-02T08:46:35;32.77;;;21.77;;
7501;SDS011;3792;47.740;7.606;2023-07-02T08:49:04;35.63;;;22.93;;
7501;SDS011;3792;47.740;7.606;2023-07-02T08:51:32;38.57;;;23.23;;
7501;SDS011;3792;47.740;7.606;2023-07-02T08:54:00;41.33;;;23.20;;
7501;SDS011;3792;47.740;7.606;2023-07-02T08:56:27;34.73;;;22.03;;
7501;SDS011;3792;47.740;7.606;2023-07-02T08:58:55;33.63;;;22.87;;
7501;SDS011;3792;47.740;7.606;2023-07-02T09:01:22;34.33;;;21.67;;
7501;SDS011;3792;47.740;7.606;2023-07-02T09:03:49;35.20;;;22.03;;
7501;SDS011;3792;47.740;7.606;2023-07-02T09:06:18;32.47;;;22.57;;
7501;SDS011;3792;47.740;7.606;2023-07-02T09:08:45;34.20;;;22.07;;
7501;SDS011;3792;47.740;7.606;2023-07-02T09:11:13;33.07;;;22.03;;
7501;SDS011;3792;47.740;7.606;2023-07-02T09:13:46;35.40;;;22.40;;
7501;SDS011;3792;47.740;7.606;2023-07-02T09:16:21;36.30;;;21.90;;
7501;SDS011;3792;47.740;7.606;2023-07-02T09:18:56;32.27;;;21.63;;
7501;SDS011;3792;47.740;7.606;2023-07-02T09:21:26;36.17;;;21.57;;
7501;SDS011;3792;47.740;7.606;2023-07-02T09:23:54;34.50;;;21.60;;
7501;SDS011;3792;47.740;7.606;2023-07-02T09:26:22;35.23;;;22.77;;
7501;SDS011;3792;47.740;7.606;2023-07-02T09:28:50;35.20;;;22.63;;
7501;SDS011;3792;47.740;7.606;2023-07-02T09:31:26;33.10;;;21.90;;
7501;SDS011;3792;47.740;7.606;2023-07-02T09:34:00;35.23;;;22.47;;
7501;SDS011;3792;47.740;7.606;2023-07-02T09:36:29;33.53;;;21.90;;
7501;SDS011;3792;47.740;7.606;2023-07-02T09:38:56;31.17;;;19.80;;
7501;SDS011;3792;47.740;7.606;2023-07-02T09:41:24;33.87;;;21.37;;
7501;SDS011;3792;47.740;7.606;2023-07-02T09:43:51;34.77;;;20.80;;
7501;SDS011;3792;47.740;7.606;2023-07-02T09:46:18;33.80;;;21.50;;
7501;SDS011;3792;47.740;7.606;2023-07-02T09:48:45;35.83;;;20.60;;
7501;SDS011;3792;47.740;7.606;2023-07-02T09:51:13;29.70;;;20.93;;
7501;SDS011;3792;47.740;7.606;2023-07-02T09:53:41;30.47;;;19.57;;
7501;SDS011;3792;47.740;7.606;2023-07-02T09:56:08;32.93;;;21.27;;
7501;SDS011;3792;47.740;7.606;2023-07-02T09:58:37;31.57;;;20.60;;
7501;SDS011;3792;47.740;7.606;2023-07-02T10:01:04;27.27;;;19.80;;
7501;SDS011;3792;47.740;7.606;2023-07-02T10:03:31;29.70;;;20.67;;
7501;SDS011;3792;47.740;7.606;2023-07-02T10:06:05;31.67;;;20.83;;
7501;SDS011;3792;47.740;7.606;2023-07-02T10:08:32;31.83;;;20.00;;
7501;SDS011;3792;47.740;7.606;2023-07-02T10:11:07;26.97;;;19.03;;
7501;SDS011;3792;47.740;7.606;2023-07-02T10:13:35;30.27;;;21.00;;
7501;SDS011;3792;47.740;7.606;2023-07-02T10:16:04;28.03;;;19.80;;
7501;SDS011;3792;47.740;7.606;2023-07-02T10:18:31;29.47;;;19.47;;
7501;SDS011;3792;47.740;7.606;2023-07-02T10:20:59;26.27;;;18.47;;
7501;SDS011;3792;47.740;7.606;2023-07-02T10:23:33;28.70;;;19.67;;
7501;SDS011;3792;47.740;7.606;2023-07-02T10:28:57;27.83;;;19.00;;
7501;SDS011;3792;47.740;7.606;2023-07-02T10:31:25;29.77;;;19.07;;
7501;SDS011;3792;47.740;7.606;2023-07-02T10:33:52;26.47;;;19.47;;
7501;SDS011;3792;47.740;7.606;2023-07-02T10:36:19;27.90;;;19.13;;
7501;SDS011;3792;47.740;7.606;2023-07-02T10:38:48;28.60;;;18.87;;
7501;SDS011;3792;47.740;7.606;2023-07-02T10:41:26;25.80;;;18.87;;
7501;SDS011;3792;47.740;7.606;2023-07-02T10:43:54;24.20;;;18.00;;
7501;SDS011;3792;47.740;7.606;2023-07-02T10:46:30;27.10;;;18.37;;
7501;SDS011;3792;47.740;7.606;2023-07-02T10:48:59;27.27;;;18.50;;
7501;SDS011;3792;47.740;7.606;2023-07-02T10:51:26;25.10;;;16.97;;
7501;SDS011;3792;47.740;7.606;2023-07-02T10:53:57;24.80;;;18.17;;
7501;SDS011;3792;47.740;7.606;2023-07-02T10:56:26;24.40;;;17.53;;
7501;SDS011;3792;47.740;7.606;2023-07-02T10:58:54;29.07;;;18.10;;
7501;SDS011;3792;47.740;7.606;2023-07-02T11:01:21;23.73;;;18.03;;
7501;SDS011;3792;47.740;7.606;2023-07-02T11:03:55;25.87;;;18.03;;
7501;SDS011;3792;47.740;7.606;2023-07-02T11:06:23;26.10;;;19.27;;
7501;SDS011;3792;47.740;7.606;2023-07-02T11:08:50;31.50;;;17.93;;
7501;SDS011;3792;47.740;7.606;2023-07-02T11:11:17;24.17;;;17.53;;
7501;SDS011;3792;47.740;7.606;2023-07-02T11:13:46;24.33;;;17.87;;
7501;SDS011;3792;47.740;7.606;2023-07-02T11:16:18;26.87;;;17.20;;
7501;SDS011;3792;47.740;7.606;2023-07-02T11:18:47;25.63;;;17.67;;
7501;SDS011;3792;47.740;7.606;2023-07-02T11:21:15;25.80;;;17.63;;
7501;SDS011;3792;47.740;7.606;2023-07-02T11:23:42;24.53;;;16.77;;
7501;SDS011;3792;47.740;7.606;2023-07-02T11:26:09;25.27;;;16.80;;
7501;SDS011;3792;47.740;7.606;2023-07-02T11:28:36;23.00;;;16.97;;
7501;SDS011;3792;47.740;7.606;2023-07-02T11:31:14;26.93;;;18.10;;
7501;SDS011;3792;47.740;7.606;2023-07-02T11:33:51;25.53;;;16.93;;
7501;SDS011;3792;47.740;7.606;2023-07-02T11:36:23;26.17;;;17.47;;
7501;SDS011;3792;47.740;7.606;2023-07-02T11:38:50;24.93;;;18.20;;
7501;SDS011;3792;47.740;7.606;2023-07-02T11:41:18;26.80;;;18.87;;
7501;SDS011;3792;47.740;7.606;2023-07-02T11:43:46;25.37;;;17.37;;
7501;SDS011;3792;47.740;7.606;2023-07-02T11:46:15;27.33;;;19.70;;
7501;SDS011;3792;47.740;7.606;2023-07-02T11:48:42;27.00;;;17.63;;
7501;SDS011;3792;47.740;7.606;2023-07-02T11:51:09;29.47;;;18.97;;
7501;SDS011;3792;47.740;7.606;2023-07-02T11:53:36;24.57;;;18.10;;
7501;SDS011;3792;47.740;7.606;2023-07-02T11:56:04;28.30;;;18.53;;
7501;SDS011;3792;47.740;7.606;2023-07-02T11:58:31;23.67;;;16.97;;
7501;SDS011;3792;47.740;7.606;2023-07-02T12:00:58;25.27;;;18.50;;
7501;SDS011;3792;47.740;7.606;2023-07-02T12:03:26;25.13;;;16.97;;
7501;SDS011;3792;47.740;7.606;2023-07-02T12:05:54;21.47;;;17.20;;
7501;SDS011;3792;47.740;7.606;2023-07-02T12:08:22;24.07;;;17.30;;
7501;SDS011;3792;47.740;7.606;2023-07-02T12:10:49;26.87;;;18.03;;
7501;SDS011;3792;47.740;7.606;2023-07-02T12:13:16;23.40;;;16.60;;
7501;SDS011;3792;47.740;7.606;2023-07-02T12:15:43;24.63;;;16.40;;
7501;SDS011;3792;47.740;7.606;2023-07-02T12:18:10;24.63;;;17.53;;
7501;SDS011;3792;47.740;7.606;2023-07-02T12:20:39;27.33;;;17.47;;
7501;SDS011;3792;47.740;7.606;2023-07-02T12:23:06;24.33;;;17.63;;
7501;SDS011;3792;47.740;7.606;2023-07-02T12:25:34;24.13;;;17.60;;
7501;SDS011;3792;47.740;7.606;2023-07-02T12:28:01;21.03;;;17.00;;
7501;SDS011;3792;47.740;7.606;2023-07-02T12:30:29;25.50;;;16.07;;
7501;SDS011;3792;47.740;7.606;2023-07-02T12:32:56;22.13;;;16.60;;
7501;SDS011;3792;47.740;7.606;2023-07-02T12:35:24;23.13;;;16.13;;
7501;SDS011;3792;47.740;7.606;2023-07-02T12:37:52;20.07;;;14.83;;
7501;SDS011;3792;47.740;7.606;2023-07-02T12:40:20;23.90;;;16.53;;
7501;SDS011;3792;47.740;7.606;2023-07-02T12:42:47;22.67;;;15.63;;
7501;SDS011;3792;47.740;7.606;2023-07-02T12:45:16;19.70;;;14.57;;
7501;SDS011;3792;47.740;7.606;2023-07-02T12:47:44;20.50;;;14.53;;
7501;SDS011;3792;47.740;7.606;2023-07-02T12:50:15;21.87;;;15.13;;
7501;SDS011;3792;47.740;7.606;2023-07-02T12:52:45;22.80;;;15.07;;
7501;SDS011;3792;47.740;7.606;2023-07-02T12:55:16;19.13;;;14.80;;
7501;SDS011;3792;47.740;7.606;2023-07-02T12:57:47;20.97;;;14.37;;
7501;SDS011;3792;47.740;7.606;2023-07-02T13:00:16;23.97;;;15.60;;
7501;SDS011;3792;47.740;7.606;2023-07-02T13:02:45;22.70;;;15.27;;
7501;SDS011;3792;47.740;7.606;2023-07-02T13:05:14;23.07;;;16.13;;
7501;SDS011;3792;47.740;7.606;2023-07-02T13:07:45;23.33;;;16.50;;
7501;SDS011;3792;47.740;7.606;2023-07-02T13:10:20;23.40;;;17.00;;
7501;SDS011;3792;47.740;7.606;2023-07-02T13:12:51;23.53;;;15.90;;
7501;SDS011;3792;47.740;7.606;2023-07-02T13:15:20;24.20;;;15.70;;
7501;SDS011;3792;47.740;7.606;2023-07-02T13:17:51;25.27;;;16.80;;
7501;SDS011;3792;47.740;7.606;2023-07-02T13:20:19;23.53;;;17.10;;
7501;SDS011;3792;47.740;7.606;2023-07-02T13:22:54;22.23;;;16.63;;
7501;SDS011;3792;47.740;7.606;2023-07-02T13:25:25;20.87;;;15.80;;
7501;SDS011;3792;47.740;7.606;2023-07-02T13:27:57;24.03;;;17.53;;
7501;SDS011;3792;47.740;7.606;2023-07-02T13:30:29;24.70;;;17.13;;
7501;SDS011;3792;47.740;7.606;2023-07-02T13:33:01;22.60;;;16.60;;
7501;SDS011;3792;47.740;7.606;2023-07-02T13:35:31;20.77;;;16.33;;
7501;SDS011;3792;47.740;7.606;2023-07-02T13:38:04;23.27;;;17.47;;
7501;SDS011;3792;47.740;7.606;2023-07-02T13:40:34;24.77;;;17.17;;
7501;SDS011;3792;47.740;7.606;2023-07-02T13:43:02;24.80;;;17.00;;
7501;SDS011;3792;47.740;7.606;2023-07-02T13:45:33;24.73;;;17.27;;
7501;SDS011;3792;47.740;7.606;2023-07-02T13:48:05;24.80;;;16.87;;
7501;SDS011;3792;47.740;7.606;2023-07-02T13:50:36;21.93;;;16.57;;
7501;SDS011;3792;47.740;7.606;2023-07-02T13:53:05;24.03;;;17.00;;
7501;SDS011;3792;47.740;7.606;2023-07-02T13:55:43;25.13;;;15.80;;
7501;SDS011;3792;47.740;7.606;2023-07-02T13:58:13;23.43;;;16.53;;
7501;SDS011;3792;47.740;7.606;2023-07-02T14:00:46;25.27;;;17.20;;
7501;SDS011;3792;47.740;7.606;2023-07-02T14:03:16;22.80;;;16.47;;
7501;SDS011;3792;47.740;7.606;2023-07-02T14:05:47;25.67;;;17.63;;
7501;SDS011;3792;47.740;7.606;2023-07-02T14:08:18;23.40;;;16.80;;
7501;SDS011;3792;47.740;7.606;2023-07-02T14:10:45;20.87;;;15.93;;
7501;SDS011;3792;47.740;7.606;2023-07-02T14:13:16;23.43;;;16.90;;
7501;SDS011;3792;47.740;7.606;2023-07-02T14:15:47;23.93;;;17.20;;
7501;SDS011;3792;47.740;7.606;2023-07-02T14:18:17;22.87;;;16.30;;
7501;SDS011;3792;47.740;7.606;2023-07-02T14:20:48;25.40;;;15.77;;
7501;SDS011;3792;47.740;7.606;2023-07-02T14:23:18;21.50;;;15.93;;
7501;SDS011;3792;47.740;7.606;2023-07-02T14:25:48;21.30;;;16.37;;
7501;SDS011;3792;47.740;7.606;2023-07-02T14:28:17;19.53;;;15.63;;
7501;SDS011;3792;47.740;7.606;2023-07-02T14:30:48;20.47;;;16.00;;
7501;SDS011;3792;47.740;7.606;2023-07-02T14:33:24;20.37;;;15.23;;
7501;SDS011;3792;47.740;7.606;2023-07-02T14:35:51;23.13;;;17.37;;
7501;SDS011;3792;47.740;7.606;2023-07-02T14:38:18;25.03;;;16.93;;
7501;SDS011;3792;47.740;7.606;2023-07-02T14:40:47;21.67;;;16.57;;
7501;SDS011;3792;47.740;7.606;2023-07-02T14:43:14;22.13;;;16.30;;
7501;SDS011;3792;47.740;7.606;2023-07-02T14:45:43;20.97;;;15.70;;
7501;SDS011;3792;47.740;7.606;2023-07-02T14:48:13;23.67;;;16.93;;
7501;SDS011;3792;47.740;7.606;2023-07-02T14:50:42;23.73;;;17.03;;
7501;SDS011;3792;47.740;7.606;2023-07-02T14:53:10;22.83;;;15.77;;
7501;SDS011;3792;47.740;7.606;2023-07-02T14:55:37;22.17;;;16.67;;
7501;SDS011;3792;47.740;7.606;2023-07-02T14:58:06;22.43;;;17.17;;
7501;SDS011;3792;47.740;7.606;2023-07-02T15:00:35;19.70;;;16.33;;
7501;SDS011;3792;47.740;7.606;2023-07-02T15:03:02;22.93;;;16.00;;
7501;SDS011;3792;47.740;7.606;2023-07-02T15:05:31;24.97;;;17.47;;